Time;durP1;ratioP1;P1;durP2;ratioP2;P2;SDS_P1;SDS_P2;PMS_P1;PMS_P2;Temp;Humidity;BMP_temperature;BMP_pressure;BME280_temperature;BME280_humidity;BME280_pressure;Samples;Min_cycle;Max_cycle;Signal;HPM_P1;HPM_P2
2021/06/27 00:02:09;;;;;;;10.13;8.32;;;19.90;94.20;;;;;;4994352;28;20667;-73
2021/06/27 00:04:35;;;;;;;10.95;7.97;;;20.00;94.20;;;;;;4994378;28;20155;-72
2021/06/27 00:07:00;;;;;;;10.95;7.95;;;19.90;94.20;;;;;;4994113;28;20034;-71
2021/06/27 00:09:28;;;;;;;11.20;7.72;;;19.80;94.20;;;;;;4994293;28;20037;-73
2021/06/27 00:11:54;;;;;;;15.02;9.13;;;19.80;94.20;;;;;;5010421;28;20050;-73
2021/06/27 00:14:19;;;;;;;11.63;7.80;;;19.80;94.10;;;;;;4994297;28;20038;-72
2021/06/27 00:16:45;;;;;;;10.07;7.65;;;19.80;94.10;;;;;;4994231;28;20035;-73
2021/06/27 00:19:11;;;;;;;11.40;7.85;;;19.70;94.10;;;;;;4994349;28;20038;-72
2021/06/27 00:21:37;;;;;;;11.40;7.93;;;19.70;94.20;;;;;;4993831;28;20416;-72
2021/06/27 00:24:03;;;;;;;8.98;7.32;;;19.70;94.10;;;;;;4994291;28;20023;-72
2021/06/27 00:26:29;;;;;;;12.02;8.15;;;19.60;94.10;;;;;;4994127;28;20471;-72
2021/06/27 00:28:55;;;;;;;9.48;7.70;;;19.60;94.20;;;;;;4993659;28;20046;-72
2021/06/27 00:31:21;;;;;;;10.43;7.30;;;19.60;94.20;;;;;;4993771;28;20038;-72
2021/06/27 00:33:47;;;;;;;10.07;7.32;;;19.60;94.30;;;;;;4993885;28;20522;-73
2021/06/27 00:36:13;;;;;;;8.40;7.05;;;19.60;94.20;;;;;;4994286;28;20038;-72
2021/06/27 00:38:39;;;;;;;11.75;7.63;;;19.50;94.20;;;;;;4993849;28;20097;-72
2021/06/27 00:41:05;;;;;;;8.55;6.65;;;19.50;94.30;;;;;;4993292;28;20496;-74
2021/06/27 00:43:32;;;;;;;9.52;7.47;;;19.40;94.60;;;;;;4992778;28;20451;-74
2021/06/27 00:45:59;;;;;;;11.68;6.97;;;19.50;94.50;;;;;;4976649;28;20305;-74
2021/06/27 00:48:25;;;;;;;8.90;7.05;;;19.40;94.30;;;;;;4993483;28;20022;-73
2021/06/27 00:50:54;;;;;;;11.55;7.80;;;19.40;94.30;;;;;;5009048;28;20030;-73
2021/06/27 00:53:20;;;;;;;8.48;6.53;;;19.40;94.40;;;;;;4993538;28;20103;-73
2021/06/27 00:55:54;;;;;;;10.10;7.40;;;19.40;94.30;;;;;;4993347;28;20047;-71
2021/06/27 00:58:27;;;;;;;11.63;7.72;;;19.40;94.30;;;;;;4993482;28;20030;-73
2021/06/27 01:00:53;;;;;;;14.57;7.18;;;19.40;94.40;;;;;;4993469;28;20511;-72
2021/06/27 01:03:19;;;;;;;11.80;7.70;;;19.30;94.40;;;;;;4993731;28;20109;-72
2021/06/27 01:05:45;;;;;;;10.05;7.15;;;19.40;94.60;;;;;;4993276;28;20109;-73
2021/06/27 01:08:11;;;;;;;10.35;7.88;;;19.30;94.40;;;;;;4993231;28;20038;-73
2021/06/27 01:10:37;;;;;;;12.75;9.18;;;19.30;94.90;;;;;;4993138;28;20030;-73
2021/06/27 01:13:03;;;;;;;11.00;8.15;;;19.20;95.00;;;;;;4993031;28;20027;-73
2021/06/27 01:15:29;;;;;;;9.93;7.70;;;19.20;94.90;;;;;;4993036;28;20033;-73
2021/06/27 01:17:56;;;;;;;11.90;7.78;;;19.10;95.00;;;;;;4976168;28;20361;-74
2021/06/27 01:20:27;;;;;;;10.32;7.60;;;19.00;95.10;;;;;;4993017;28;20109;-72
2021/06/27 01:22:54;;;;;;;11.35;7.97;;;19.00;95.20;;;;;;5008193;28;20061;-73
2021/06/27 01:25:25;;;;;;;14.77;8.73;;;18.90;95.40;;;;;;5008303;28;20042;-74
2021/06/27 01:27:52;;;;;;;13.07;7.80;;;18.90;95.50;;;;;;5008070;28;20030;-73
2021/06/27 01:30:18;;;;;;;10.75;7.95;;;18.90;95.60;;;;;;4992918;28;20030;-72
2021/06/27 01:32:48;;;;;;;11.63;7.95;;;18.80;95.70;;;;;;4992907;28;20030;-72
2021/06/27 01:35:16;;;;;;;10.60;7.72;;;18.90;95.70;;;;;;4995854;28;20057;-74
2021/06/27 01:37:43;;;;;;;10.38;7.60;;;18.90;95.80;;;;;;4994905;28;20030;-73
2021/06/27 01:40:11;;;;;;;11.13;8.65;;;18.80;95.90;;;;;;5027616;28;20061;-72
2021/06/27 01:42:38;;;;;;;14.07;8.52;;;18.80;95.90;;;;;;5011761;28;20474;-74
2021/06/27 01:45:16;;;;;;;11.20;8.13;;;18.80;95.90;;;;;;5012409;28;20022;-74
2021/06/27 01:47:42;;;;;;;14.32;9.52;;;18.80;95.90;;;;;;5012064;28;20049;-73
2021/06/27 01:50:09;;;;;;;13.07;7.65;;;18.70;96.10;;;;;;5011835;28;20105;-73
2021/06/27 01:52:36;;;;;;;12.38;8.13;;;18.70;96.10;;;;;;5011617;28;20053;-73
2021/06/27 01:55:05;;;;;;;12.55;7.78;;;18.60;96.10;;;;;;5011773;28;20112;-73
2021/06/27 01:57:30;;;;;;;12.00;8.23;;;18.60;96.10;;;;;;5011935;28;20034;-73
2021/06/27 01:59:56;;;;;;;13.23;8.25;;;18.50;96.10;;;;;;5012072;28;20368;-75
2021/06/27 02:02:22;;;;;;;9.90;7.43;;;18.60;96.00;;;;;;5011598;28;20069;-74
2021/06/27 02:04:47;;;;;;;10.85;8.02;;;18.50;96.10;;;;;;5011767;28;20033;-73
2021/06/27 02:07:13;;;;;;;10.13;7.70;;;18.50;96.00;;;;;;5011683;28;20030;-72
2021/06/27 02:09:44;;;;;;;11.13;8.13;;;18.50;96.10;;;;;;5011253;28;20071;-72
2021/06/27 02:12:10;;;;;;;12.48;8.25;;;18.50;96.30;;;;;;4994656;28;20034;-73
2021/06/27 02:14:39;;;;;;;11.27;8.52;;;18.50;96.20;;;;;;5011688;28;20045;-72
2021/06/27 02:17:05;;;;;;;12.13;7.75;;;18.40;96.30;;;;;;4994103;28;20037;-73
2021/06/27 02:19:32;;;;;;;9.98;7.88;;;18.30;96.60;;;;;;5011504;28;20046;-73
2021/06/27 02:21:58;;;;;;;10.60;7.75;;;18.30;96.60;;;;;;5011635;28;20030;-74
2021/06/27 02:24:24;;;;;;;9.25;7.40;;;18.20;96.70;;;;;;5011386;28;20498;-73
2021/06/27 02:26:49;;;;;;;15.90;8.43;;;18.20;96.80;;;;;;5012009;28;20132;-71
2021/06/27 02:29:15;;;;;;;13.07;8.30;;;18.20;96.90;;;;;;5011114;28;20140;-72
2021/06/27 02:31:48;;;;;;;12.10;8.65;;;18.20;96.90;;;;;;5011276;28;20042;-74
2021/06/27 02:34:14;;;;;;;10.63;7.90;;;18.10;96.90;;;;;;5011082;28;20033;-74
2021/06/27 02:36:39;;;;;;;14.35;8.40;;;18.20;96.80;;;;;;5010984;28;20033;-72
2021/06/27 02:39:05;;;;;;;17.05;8.40;;;18.10;96.90;;;;;;5011714;28;20026;-72
2021/06/27 02:41:32;;;;;;;10.57;7.85;;;18.10;97.00;;;;;;4993050;28;20383;-73
2021/06/27 02:43:58;;;;;;;11.05;7.60;;;18.10;96.90;;;;;;5011267;28;20022;-72
2021/06/27 02:46:24;;;;;;;14.23;8.40;;;18.00;97.00;;;;;;5010813;28;20169;-74
2021/06/27 02:48:49;;;;;;;12.63;7.45;;;18.10;97.10;;;;;;5011051;28;20072;-73
2021/06/27 02:51:15;;;;;;;12.23;8.23;;;18.00;97.20;;;;;;5011417;28;20045;-74
2021/06/27 02:53:40;;;;;;;11.80;8.80;;;17.90;97.20;;;;;;4993513;28;20046;-73
2021/06/27 02:56:09;;;;;;;11.90;8.75;;;17.90;97.40;;;;;;5010689;28;20054;-73
2021/06/27 02:58:41;;;;;;;10.77;8.15;;;17.90;97.40;;;;;;5011026;28;20038;-74
2021/06/27 03:01:07;;;;;;;11.65;8.82;;;17.80;97.40;;;;;;5010945;28;20133;-72
2021/06/27 03:03:33;;;;;;;11.48;8.45;;;17.80;97.50;;;;;;4993330;28;20551;-73
2021/06/27 03:05:59;;;;;;;13.20;8.90;;;17.70;97.60;;;;;;5010662;28;20029;-72
2021/06/27 03:08:25;;;;;;;19.75;8.02;;;17.70;97.50;;;;;;5010900;28;20034;-72
2021/06/27 03:10:51;;;;;;;14.15;8.75;;;17.70;97.50;;;;;;5010826;28;20041;-72
2021/06/27 03:13:16;;;;;;;13.77;9.25;;;17.70;97.60;;;;;;5010453;28;20392;-72
2021/06/27 03:15:42;;;;;;;15.45;8.93;;;17.60;97.60;;;;;;4992946;28;20029;-73
2021/06/27 03:18:07;;;;;;;15.85;9.10;;;17.60;97.70;;;;;;5010955;28;20026;-73
2021/06/27 03:20:33;;;;;;;17.92;10.60;;;17.60;97.80;;;;;;5010434;28;20037;-72
2021/06/27 03:22:59;;;;;;;13.95;8.55;;;17.50;98.00;;;;;;4993440;28;20049;-75
2021/06/27 03:25:28;;;;;;;13.02;8.77;;;17.50;97.90;;;;;;5010715;28;20049;-73
2021/06/27 03:27:54;;;;;;;15.77;9.65;;;17.50;98.00;;;;;;4992905;28;20370;-74
2021/06/27 03:30:20;;;;;;;12.82;8.90;;;17.50;98.00;;;;;;5010836;28;20033;-73
2021/06/27 03:32:47;;;;;;;16.48;9.77;;;17.60;98.00;;;;;;4992896;28;20030;-72
2021/06/27 03:35:13;;;;;;;14.60;9.00;;;17.60;98.00;;;;;;5010539;28;20052;-73
2021/06/27 03:37:43;;;;;;;16.67;9.13;;;17.70;97.90;;;;;;4993388;28;20052;-74
2021/06/27 03:40:10;;;;;;;13.98;8.82;;;17.70;97.90;;;;;;5010794;28;20022;-74
2021/06/27 03:42:35;;;;;;;16.63;9.70;;;17.70;98.00;;;;;;5010353;28;20356;-74
2021/06/27 03:45:01;;;;;;;15.07;9.63;;;17.70;97.90;;;;;;5010822;28;20029;-73
2021/06/27 03:47:27;;;;;;;14.68;9.13;;;17.60;97.90;;;;;;5010299;28;20022;-74
2021/06/27 03:49:52;;;;;;;14.95;8.57;;;17.50;98.10;;;;;;5010335;28;20041;-74
2021/06/27 03:52:19;;;;;;;14.77;8.60;;;17.60;98.20;;;;;;5010408;28;20400;-74
2021/06/27 03:54:44;;;;;;;14.38;10.18;;;17.50;98.20;;;;;;5010248;28;20653;-74
2021/06/27 03:57:10;;;;;;;15.88;9.05;;;17.50;98.30;;;;;;5010953;28;20029;-75
2021/06/27 03:59:36;;;;;;;16.02;10.00;;;17.50;98.30;;;;;;4993381;28;20038;-74
2021/06/27 04:02:01;;;;;;;18.63;9.30;;;17.50;98.20;;;;;;5010088;28;20121;-73
2021/06/27 04:04:27;;;;;;;16.65;9.82;;;17.60;98.30;;;;;;5010251;28;20026;-73
2021/06/27 04:06:52;;;;;;;13.30;9.73;;;17.50;98.30;;;;;;5010399;28;20479;-74
2021/06/27 04:09:18;;;;;;;12.68;8.95;;;17.60;98.40;;;;;;5010706;28;20545;-73
2021/06/27 04:11:43;;;;;;;14.85;10.75;;;17.60;98.30;;;;;;5010376;28;20034;-74
2021/06/27 04:14:09;;;;;;;14.52;9.52;;;17.60;98.30;;;;;;5010089;28;20044;-73
2021/06/27 04:16:34;;;;;;;18.45;9.98;;;17.60;98.40;;;;;;5011204;28;20472;-72
2021/06/27 04:19:00;;;;;;;15.23;9.07;;;17.60;98.30;;;;;;5013557;28;20057;-73
2021/06/27 04:21:26;;;;;;;14.20;9.57;;;17.70;98.50;;;;;;5013432;28;20038;-74
2021/06/27 04:23:52;;;;;;;13.15;8.95;;;17.70;98.10;;;;;;5014200;28;20029;-72
2021/06/27 04:26:18;;;;;;;15.05;9.18;;;17.70;98.30;;;;;;5013750;28;20085;-74
2021/06/27 04:28:44;;;;;;;15.10;9.05;;;17.70;98.10;;;;;;5013404;28;20042;-73
2021/06/27 04:31:09;;;;;;;16.20;8.40;;;17.70;98.50;;;;;;5013632;28;20033;-74
2021/06/27 04:33:35;;;;;;;14.88;9.43;;;17.70;98.40;;;;;;5013335;28;20040;-74
2021/06/27 04:36:00;;;;;;;18.27;9.50;;;17.80;98.40;;;;;;4996600;28;20026;-73
2021/06/27 04:38:26;;;;;;;14.10;9.43;;;17.80;98.40;;;;;;5013499;28;20120;-74
2021/06/27 04:40:53;;;;;;;13.13;9.15;;;17.90;98.70;;;;;;5013169;28;20321;-72
2021/06/27 04:43:19;;;;;;;13.35;9.57;;;17.90;98.30;;;;;;4996008;28;20042;-73
2021/06/27 04:45:45;;;;;;;16.05;9.40;;;18.00;98.20;;;;;;5012923;28;20030;-74
2021/06/27 04:48:10;;;;;;;15.63;9.32;;;18.00;98.20;;;;;;4996115;28;20442;-74
2021/06/27 04:50:37;;;;;;;14.65;9.07;;;18.00;98.20;;;;;;5012794;28;20030;-74
2021/06/27 04:53:03;;;;;;;17.13;9.65;;;18.00;98.40;;;;;;5012881;28;20034;-73
2021/06/27 04:55:29;;;;;;;13.93;9.00;;;18.00;98.50;;;;;;5013099;28;20034;-73
2021/06/27 04:57:55;;;;;;;14.32;8.82;;;18.10;98.40;;;;;;4995728;28;20030;-73
2021/06/27 05:00:21;;;;;;;15.57;8.73;;;18.20;98.00;;;;;;5013258;28;20460;-74
2021/06/27 05:02:47;;;;;;;15.10;9.30;;;18.20;97.90;;;;;;5012782;28;20118;-74
2021/06/27 05:05:14;;;;;;;13.73;8.38;;;18.30;97.80;;;;;;5012727;28;20034;-74
2021/06/27 05:07:39;;;;;;;14.52;8.85;;;18.30;97.70;;;;;;5012953;28;20126;-74
2021/06/27 05:10:06;;;;;;;17.48;9.35;;;18.40;97.60;;;;;;5013171;28;20126;-73
2021/06/27 05:12:33;;;;;;;13.50;8.15;;;18.50;97.60;;;;;;5012726;28;20088;-73
2021/06/27 05:14:58;;;;;;;17.17;7.93;;;18.50;97.70;;;;;;5013368;28;20105;-74
2021/06/27 05:17:24;;;;;;;16.38;7.78;;;18.50;97.50;;;;;;5013028;28;20121;-73
2021/06/27 05:19:50;;;;;;;17.50;7.78;;;18.60;97.40;;;;;;4995321;28;20466;-72
2021/06/27 05:22:16;;;;;;;14.48;8.38;;;18.70;97.20;;;;;;5012678;28;20042;-74
2021/06/27 05:24:41;;;;;;;15.45;8.15;;;18.70;97.00;;;;;;5012209;28;20125;-74
2021/06/27 05:27:07;;;;;;;14.77;8.38;;;18.70;97.00;;;;;;5012632;28;20460;-73
2021/06/27 05:29:34;;;;;;;17.02;7.55;;;18.80;96.90;;;;;;5011458;28;20127;-74
2021/06/27 05:32:00;;;;;;;18.17;7.85;;;18.90;96.90;;;;;;5012258;28;20030;-74
2021/06/27 05:34:29;;;;;;;11.43;7.63;;;18.90;96.80;;;;;;5012206;28;20091;-74
2021/06/27 05:36:54;;;;;;;13.88;7.43;;;19.00;97.00;;;;;;5012333;28;20033;-74
2021/06/27 05:39:21;;;;;;;15.90;7.10;;;19.00;96.70;;;;;;4995356;28;20030;-75
2021/06/27 05:41:46;;;;;;;17.17;7.78;;;19.10;96.60;;;;;;5012194;28;20409;-73
2021/06/27 05:44:12;;;;;;;12.88;6.78;;;19.20;96.90;;;;;;4994623;28;20030;-72
2021/06/27 05:46:38;;;;;;;11.02;6.82;;;19.30;96.40;;;;;;5011958;28;20029;-73
2021/06/27 05:49:05;;;;;;;15.40;6.57;;;19.40;96.30;;;;;;5012026;28;20334;-74
2021/06/27 05:51:31;;;;;;;9.80;5.60;;;19.40;95.80;;;;;;5012155;28;20333;-74
2021/06/27 05:53:57;;;;;;;14.35;6.57;;;19.60;95.40;;;;;;5012565;28;20030;-74
2021/06/27 05:56:22;;;;;;;10.23;5.88;;;19.70;95.40;;;;;;5012098;28;20383;-73
2021/06/27 05:58:48;;;;;;;14.93;6.68;;;19.90;95.60;;;;;;5011790;28;20040;-75
2021/06/27 06:01:18;;;;;;;7.32;5.25;;;19.90;95.30;;;;;;5011939;28;20038;-74
2021/06/27 06:03:44;;;;;;;11.13;5.45;;;20.00;95.10;;;;;;5012074;28;20112;-75
2021/06/27 06:06:11;;;;;;;9.98;6.20;;;20.10;94.90;;;;;;5012664;28;20032;-72
2021/06/27 06:08:41;;;;;;;9.60;5.15;;;20.10;95.00;;;;;;5011656;28;20030;-74
2021/06/27 06:11:09;;;;;;;8.48;4.93;;;20.10;94.90;;;;;;5011789;28;20050;-73
2021/06/27 06:13:34;;;;;;;9.57;4.93;;;20.30;94.70;;;;;;5011430;28;20088;-74
2021/06/27 06:16:00;;;;;;;7.15;4.38;;;20.30;94.70;;;;;;5011597;28;20034;-75
2021/06/27 06:18:25;;;;;;;8.68;5.05;;;20.30;94.50;;;;;;5011565;28;20034;-75
2021/06/27 06:20:51;;;;;;;6.10;4.50;;;20.30;94.40;;;;;;5012237;28;20025;-75
2021/06/27 06:23:17;;;;;;;12.70;4.60;;;20.30;94.50;;;;;;5011630;28;20117;-74
2021/06/27 06:25:42;;;;;;;8.82;4.95;;;20.30;94.50;;;;;;5011661;28;20129;-73
2021/06/27 06:28:08;;;;;;;8.35;5.15;;;20.40;94.60;;;;;;5011157;28;20050;-73
2021/06/27 06:30:33;;;;;;;8.02;4.00;;;20.40;94.80;;;;;;5011217;28;20030;-73
2021/06/27 06:32:59;;;;;;;6.57;4.95;;;20.50;94.50;;;;;;5011984;28;20459;-73
2021/06/27 06:35:25;;;;;;;8.70;4.30;;;20.60;94.30;;;;;;4991332;28;20045;-72
2021/06/27 06:37:50;;;;;;;9.38;4.32;;;20.60;94.30;;;;;;5011182;28;20468;-72
2021/06/27 06:40:16;;;;;;;6.85;4.40;;;20.70;94.10;;;;;;5011475;28;20062;-72
2021/06/27 06:42:41;;;;;;;6.50;4.90;;;20.70;93.80;;;;;;5011499;28;20042;-70
2021/06/27 06:45:08;;;;;;;8.40;4.45;;;20.80;93.70;;;;;;5011854;28;20030;-73
2021/06/27 06:47:33;;;;;;;13.18;4.47;;;20.80;93.60;;;;;;5010587;28;20037;-73
2021/06/27 06:49:59;;;;;;;8.95;4.22;;;20.90;93.50;;;;;;5011139;28;20022;-72
2021/06/27 06:52:24;;;;;;;6.35;4.47;;;20.90;93.30;;;;;;5011829;28;20179;-72
2021/06/27 06:54:50;;;;;;;7.10;3.80;;;21.00;93.10;;;;;;5010661;28;20038;-72
2021/06/27 06:57:16;;;;;;;9.20;4.45;;;21.10;93.10;;;;;;5010474;28;20121;-72
2021/06/27 06:59:42;;;;;;;6.22;3.95;;;21.10;93.00;;;;;;5011354;28;20034;-73
2021/06/27 07:02:08;;;;;;;8.60;4.57;;;21.10;92.90;;;;;;5011647;28;20040;-72
2021/06/27 07:04:34;;;;;;;7.53;4.63;;;21.20;93.10;;;;;;5011067;28;20030;-72
2021/06/27 07:07:00;;;;;;;5.10;4.03;;;21.30;92.70;;;;;;5011058;28;20096;-74
2021/06/27 07:09:25;;;;;;;8.35;4.50;;;21.40;92.70;;;;;;5011140;28;20037;-73
2021/06/27 07:11:51;;;;;;;11.85;5.13;;;21.50;92.70;;;;;;5011445;28;20026;-73
2021/06/27 07:14:17;;;;;;;8.43;5.22;;;21.60;92.40;;;;;;5010344;28;20070;-74
2021/06/27 07:16:42;;;;;;;5.93;4.32;;;21.70;92.20;;;;;;5010796;28;20046;-74
2021/06/27 07:19:08;;;;;;;18.23;10.52;;;21.70;92.40;;;;;;5010816;28;20030;-74
2021/06/27 07:21:33;;;;;;;6.32;4.30;;;21.80;92.60;;;;;;5010797;28;20360;-70
2021/06/27 07:23:59;;;;;;;6.88;4.55;;;21.90;92.20;;;;;;5011462;28;20385;-71
2021/06/27 07:26:25;;;;;;;10.57;4.40;;;22.00;91.60;;;;;;5010793;28;20449;-72
2021/06/27 07:28:50;;;;;;;6.25;3.85;;;22.10;91.60;;;;;;5019497;28;20064;-73
2021/06/27 07:31:16;;;;;;;8.32;4.47;;;22.30;91.90;;;;;;5030269;28;20030;-72
2021/06/27 07:33:42;;;;;;;6.47;3.78;;;22.40;91.40;;;;;;5030074;28;20025;-73
2021/06/27 07:36:08;;;;;;;4.47;3.95;;;22.50;91.00;;;;;;5013102;28;20440;-73
2021/06/27 07:38:34;;;;;;;6.20;4.05;;;22.60;91.00;;;;;;5030448;28;20037;-73
2021/06/27 07:40:59;;;;;;;4.95;3.85;;;22.70;90.70;;;;;;5030476;28;20356;-72
2021/06/27 07:43:25;;;;;;;7.05;3.97;;;22.80;91.30;;;;;;5012467;28;20479;-72
2021/06/27 07:45:50;;;;;;;5.15;4.10;;;23.20;91.80;;;;;;5030174;28;20034;-73
2021/06/27 07:48:16;;;;;;;6.03;3.97;;;23.80;91.20;;;;;;5030801;28;20107;-72
2021/06/27 07:50:42;;;;;;;4.35;3.65;;;24.60;90.70;;;;;;5030408;28;20033;-74
2021/06/27 07:53:08;;;;;;;5.68;3.90;;;25.30;86.50;;;;;;5015881;28;20041;-71
2021/06/27 07:55:34;;;;;;;5.13;3.53;;;25.60;86.00;;;;;;5033998;28;20054;-72
2021/06/27 07:58:01;;;;;;;5.65;3.67;;;25.80;83.20;;;;;;5034011;28;20040;-72
2021/06/27 08:00:29;;;;;;;4.82;3.55;;;25.90;82.40;;;;;;5033898;28;20033;-74
2021/06/27 08:02:56;;;;;;;4.25;3.85;;;26.30;83.30;;;;;;5034593;28;20384;-73
2021/06/27 08:05:22;;;;;;;4.15;3.22;;;26.60;81.80;;;;;;5016690;28;20049;-74
2021/06/27 08:07:47;;;;;;;3.95;3.53;;;27.00;77.50;;;;;;5033579;28;20064;-75
2021/06/27 08:10:13;;;;;;;4.20;3.22;;;27.30;75.90;;;;;;5033684;28;20061;-74
2021/06/27 08:12:39;;;;;;;9.77;5.95;;;27.60;73.80;;;;;;5015895;28;20034;-74
2021/06/27 08:15:07;;;;;;;4.45;4.05;;;28.20;74.70;;;;;;5034160;28;20035;-72
2021/06/27 08:17:33;;;;;;;4.80;3.88;;;28.70;73.60;;;;;;5033569;28;20517;-77
2021/06/27 08:19:58;;;;;;;7.20;3.30;;;28.70;68.80;;;;;;5016518;28;20029;-78
2021/06/27 08:22:24;;;;;;;3.90;3.15;;;29.20;68.80;;;;;;5016288;28;20348;-79
2021/06/27 08:24:49;;;;;;;4.65;3.50;;;29.20;65.00;;;;;;5033617;28;20056;-78
2021/06/27 08:27:15;;;;;;;7.38;3.10;;;29.30;64.40;;;;;;5033830;28;20100;-81
2021/06/27 08:29:40;;;;;;;6.47;3.45;;;29.60;63.60;;;;;;5033309;28;20096;-76
2021/06/27 08:32:07;;;;;;;4.32;3.30;;;30.10;62.80;;;;;;5033243;28;20026;-73
2021/06/27 08:34:33;;;;;;;3.00;2.70;;;30.80;60.80;;;;;;5033164;28;20026;-75
2021/06/27 08:36:58;;;;;;;4.97;2.80;;;31.30;58.90;;;;;;5033348;28;20029;-70
2021/06/27 08:39:24;;;;;;;5.13;3.53;;;31.40;55.80;;;;;;5033039;28;20444;-71
2021/06/27 08:41:50;;;;;;;3.72;3.20;;;31.20;58.00;;;;;;5015921;28;20029;-71
2021/06/27 08:44:16;;;;;;;3.45;2.85;;;31.80;56.00;;;;;;5033013;28;20030;-71
2021/06/27 08:46:44;;;;;;;4.10;3.25;;;32.30;55.40;;;;;;5032838;28;20111;-70
2021/06/27 08:49:12;;;;;;;2.97;2.78;;;32.40;53.80;;;;;;5015192;28;20374;-70
2021/06/27 08:51:41;;;;;;;3.60;2.90;;;32.60;52.50;;;;;;5032867;28;20033;-72
2021/06/27 08:54:08;;;;;;;6.30;3.10;;;32.30;51.20;;;;;;5033373;28;20053;-70
2021/06/27 08:56:35;;;;;;;5.53;3.30;;;32.10;51.00;;;;;;5033192;28;20030;-70
2021/06/27 08:59:01;;;;;;;3.13;2.60;;;32.10;51.90;;;;;;5032976;28;20053;-70
2021/06/27 09:01:27;;;;;;;5.43;3.10;;;32.10;50.40;;;;;;5032669;28;20321;-72
2021/06/27 09:03:55;;;;;;;3.25;2.80;;;31.60;52.30;;;;;;5014073;28;20033;-71
2021/06/27 09:06:32;;;;;;;4.25;3.15;;;31.00;52.70;;;;;;5033101;28;20471;-71
2021/06/27 09:09:13;;;;;;;5.33;3.00;;;31.00;52.80;;;;;;5033001;28;20065;-72
2021/06/27 09:11:54;;;;;;;4.13;3.40;;;31.20;52.40;;;;;;5032627;28;20040;-71
2021/06/27 09:14:41;;;;;;;3.53;3.22;;;31.00;52.70;;;;;;5032568;28;20113;-70
2021/06/27 09:17:24;;;;;;;4.83;3.50;;;30.60;51.90;;;;;;5032426;28;20033;-76
2021/06/27 09:19:54;;;;;;;3.60;2.80;;;30.60;52.90;;;;;;5032381;28;20263;-75
2021/06/27 09:22:34;;;;;;;4.95;3.08;;;30.60;52.30;;;;;;5032567;28;20044;-71
2021/06/27 09:25:14;;;;;;;3.83;3.50;;;30.20;53.60;;;;;;5032194;28;20033;-74
2021/06/27 09:27:40;;;;;;;6.35;3.30;;;30.30;54.80;;;;;;5014665;28;20025;-75
2021/06/27 09:30:20;;;;;;;5.15;3.03;;;30.30;53.80;;;;;;5032564;28;20572;-75
2021/06/27 09:33:10;;;;;;;5.60;4.43;;;30.20;53.80;;;;;;5032528;28;20033;-69
2021/06/27 09:35:39;;;;;;;4.90;3.10;;;29.90;54.60;;;;;;5032442;28;20025;-82
2021/06/27 09:38:24;;;;;;;6.22;3.42;;;29.70;54.50;;;;;;5032491;28;20518;-71
2021/06/27 09:40:56;;;;;;;4.25;3.28;;;29.60;54.30;;;;;;5031946;28;20487;-73
2021/06/27 09:43:22;;;;;;;8.63;3.35;;;29.00;55.20;;;;;;5032040;28;20042;-76
2021/06/27 09:45:56;;;;;;;5.47;3.05;;;29.00;56.20;;;;;;5032117;28;20026;-79
2021/06/27 09:48:24;;;;;;;6.57;3.35;;;28.80;55.90;;;;;;5032534;28;20031;-73
2021/06/27 09:50:51;;;;;;;6.72;3.72;;;28.70;55.90;;;;;;5032614;28;20061;-72
2021/06/27 09:53:45;;;;;;;5.10;3.22;;;28.90;56.40;;;;;;5032293;28;20041;-72
2021/06/27 09:56:11;;;;;;;11.93;4.18;;;28.80;56.50;;;;;;5014260;28;20042;-75
2021/06/27 09:58:37;;;;;;;4.30;3.67;;;28.80;58.20;;;;;;5031417;28;20047;-72
2021/06/27 10:01:17;;;;;;;9.13;3.85;;;28.70;58.00;;;;;;5031544;28;20490;-74
2021/06/27 10:03:50;;;;;;;3.75;3.38;;;28.80;58.30;;;;;;5031343;28;20100;-73
2021/06/27 10:06:16;;;;;;;4.38;2.83;;;28.70;57.60;;;;;;5031949;28;20056;-74
2021/06/27 10:08:42;;;;;;;4.38;3.25;;;28.50;57.10;;;;;;5031640;28;20033;-72
2021/06/27 10:11:16;;;;;;;4.18;3.00;;;28.50;58.10;;;;;;5031503;28;20034;-72
2021/06/27 10:13:50;;;;;;;4.10;3.15;;;28.60;58.30;;;;;;5031261;28;20048;-85
2021/06/27 10:16:25;;;;;;;4.15;3.42;;;28.60;58.30;;;;;;5031274;28;20038;-83
2021/06/27 10:18:51;;;;;;;3.70;3.30;;;28.50;57.20;;;;;;5013589;28;20045;-83
2021/06/27 10:21:17;;;;;;;7.05;3.42;;;28.40;55.50;;;;;;5014261;28;20316;-76
2021/06/27 10:23:44;;;;;;;7.97;3.63;;;28.50;56.40;;;;;;5031678;28;20537;-79
2021/06/27 10:26:09;;;;;;;6.65;3.92;;;28.60;56.90;;;;;;5013467;28;20451;-79
2021/06/27 10:28:36;;;;;;;16.67;4.00;;;28.80;58.30;;;;;;5030998;28;20242;-78
2021/06/27 10:31:04;;;;;;;4.78;3.60;;;28.80;57.80;;;;;;5013441;28;20033;-77
2021/06/27 10:33:31;;;;;;;5.82;3.00;;;28.70;55.10;;;;;;5030843;28;20505;-75
2021/06/27 10:35:58;;;;;;;5.65;3.95;;;28.60;52.70;;;;;;5031602;28;20032;-76
2021/06/27 10:38:28;;;;;;;8.73;3.63;;;28.50;54.60;;;;;;5030878;28;20026;-75
2021/06/27 10:41:00;;;;;;;7.25;3.55;;;28.60;55.10;;;;;;5029460;28;20479;-77
2021/06/27 10:44:02;;;;;;;4.30;2.75;;;28.70;55.40;;;;;;5030986;28;20120;-78
2021/06/27 10:46:43;;;;;;;3.63;3.33;;;28.70;53.30;;;;;;5030867;28;20072;-71
2021/06/27 10:49:31;;;;;;;4.30;3.08;;;28.70;53.10;;;;;;5030349;28;20109;-73
2021/06/27 10:52:11;;;;;;;5.82;3.55;;;28.80;53.60;;;;;;5030541;28;20056;-74
2021/06/27 10:54:42;;;;;;;3.78;3.40;;;28.70;54.80;;;;;;5013317;28;20033;-80
2021/06/27 10:57:08;;;;;;;3.65;3.33;;;28.60;54.40;;;;;;5031112;28;20092;-76
2021/06/27 10:59:51;;;;;;;4.43;3.55;;;28.50;54.40;;;;;;5012956;28;20041;-79
2021/06/27 11:02:25;;;;;;;8.32;3.30;;;28.40;54.90;;;;;;5030632;28;20054;-81
2021/06/27 11:04:55;;;;;;;5.03;2.78;;;28.70;55.50;;;;;;5030437;28;20119;-80
2021/06/27 11:07:33;;;;;;;7.85;2.97;;;28.90;54.50;;;;;;5030754;28;20056;-78
2021/06/27 11:10:28;;;;;;;5.43;3.08;;;28.90;54.00;;;;;;5030885;28;20040;-77
2021/06/27 11:13:00;;;;;;;4.80;2.67;;;28.90;54.40;;;;;;4987192;28;20105;-77
2021/06/27 11:15:31;;;;;;;4.03;2.40;;;28.90;52.80;;;;;;5030428;28;20040;-76
2021/06/27 11:18:02;;;;;;;3.58;2.17;;;28.80;52.50;;;;;;5030927;28;20025;-78
2021/06/27 11:20:31;;;;;;;2.78;2.42;;;28.80;53.10;;;;;;5012815;28;20036;-79
2021/06/27 11:22:59;;;;;;;3.75;2.60;;;28.90;53.20;;;;;;5030421;28;20034;-77
2021/06/27 11:25:42;;;;;;;4.05;2.45;;;28.80;53.90;;;;;;5030563;28;20029;-79
2021/06/27 11:28:20;;;;;;;4.53;2.83;;;28.70;52.50;;;;;;5033985;28;20106;-78
2021/06/27 11:31:05;;;;;;;2.80;2.30;;;28.60;52.90;;;;;;5034461;28;20120;-79
2021/06/27 11:33:31;;;;;;;7.18;3.15;;;28.70;53.50;;;;;;5034521;28;20029;-78
2021/06/27 11:35:59;;;;;;;4.22;2.58;;;28.70;53.50;;;;;;5035115;28;20105;-74
2021/06/27 11:38:39;;;;;;;5.97;2.83;;;28.50;54.40;;;;;;5016698;28;20100;-78
2021/06/27 11:41:10;;;;;;;4.32;3.15;;;28.80;54.90;;;;;;5034538;28;20025;-80
2021/06/27 11:44:02;;;;;;;7.90;2.67;;;28.80;53.30;;;;;;5017281;28;20042;-82
2021/06/27 11:46:34;;;;;;;3.50;2.60;;;28.70;53.40;;;;;;5034169;28;20033;-76
2021/06/27 11:49:07;;;;;;;3.92;3.10;;;28.70;53.90;;;;;;5016293;28;20033;-78
2021/06/27 11:51:44;;;;;;;5.68;2.78;;;28.60;53.30;;;;;;5034201;28;20025;-87
2021/06/27 11:54:12;;;;;;;3.85;2.90;;;28.60;53.90;;;;;;5034682;28;20021;-83
2021/06/27 11:56:57;;;;;;;6.63;2.97;;;28.50;54.10;;;;;;5034318;28;20025;-77
2021/06/27 11:59:28;;;;;;;4.15;2.55;;;28.50;54.20;;;;;;5034417;28;20044;-77
2021/06/27 12:02:17;;;;;;;5.60;2.85;;;28.60;54.20;;;;;;5033846;28;20042;-80
2021/06/27 12:04:44;;;;;;;4.53;2.85;;;28.60;55.10;;;;;;5034201;28;20033;-76
2021/06/27 12:07:26;;;;;;;3.72;2.80;;;28.50;54.40;;;;;;5034129;28;20026;-73
2021/06/27 12:09:53;;;;;;;4.47;2.72;;;28.60;54.10;;;;;;5034151;28;20026;-84
2021/06/27 12:12:38;;;;;;;2.42;2.22;;;28.60;53.30;;;;;;5034254;28;20037;-76
2021/06/27 12:15:08;;;;;;;6.30;2.83;;;28.50;52.40;;;;;;5033832;28;20494;-77
2021/06/27 12:17:34;;;;;;;4.50;2.78;;;28.40;54.50;;;;;;5034039;28;20033;-76
2021/06/27 12:20:00;;;;;;;3.97;3.35;;;28.40;54.70;;;;;;5015839;28;20341;-74
2021/06/27 12:22:25;;;;;;;4.63;3.40;;;28.50;55.20;;;;;;5033619;28;20041;-78
2021/06/27 12:24:59;;;;;;;11.25;3.85;;;28.40;55.90;;;;;;5033518;28;20159;-69
2021/06/27 12:27:24;;;;;;;3.83;2.78;;;28.50;56.80;;;;;;5033419;28;20027;-77
2021/06/27 12:29:54;;;;;;;8.45;3.20;;;28.40;56.80;;;;;;5033735;28;20051;-72
2021/06/27 12:32:19;;;;;;;7.43;3.08;;;28.50;56.60;;;;;;5033496;28;20025;-74
2021/06/27 12:34:46;;;;;;;9.90;3.13;;;28.50;56.10;;;;;;5033297;28;20486;-72
2021/06/27 12:37:13;;;;;;;5.43;3.05;;;28.50;55.90;;;;;;5033119;28;20115;-74
2021/06/27 12:39:40;;;;;;;5.97;2.83;;;28.50;56.20;;;;;;5033469;28;20302;-69
2021/06/27 12:42:10;;;;;;;3.80;2.58;;;28.60;57.10;;;;;;5033350;28;20160;-68
2021/06/27 12:44:36;;;;;;;3.40;2.63;;;28.60;56.60;;;;;;5032988;28;20029;-69
2021/06/27 12:47:02;;;;;;;3.72;2.97;;;28.60;56.40;;;;;;5033067;28;20040;-69
2021/06/27 12:49:34;;;;;;;5.00;2.63;;;28.70;56.30;;;;;;5032753;28;20120;-68